Kushiro Airport Kushiro JP
ICAO: RJCK
IATA:
Category: Medium
Scheduled Services:

Elevation: 327 ft
TransAlt. 14000 ft.

Airport Communications:
SAPPORO CON:127.5
TWR:118.05

RJCK Zoom In..

If you have problems with the map follow the link
https://www.worldairports.se/pages/airport.php?
ICAO=RJCK

Runways:

(A) RW 17 length 8202 ft width 148 ft
ILS 108.90 / hdg 168

(B) RW 35 length 8202 ft width 148 ft
---- / hdg 348

Location; RJCK
Day. 22 / Time. 11.00 Zulu
* QNH: 1012
* Temperature: -01° c. -30.2°f.
* Wind from: VRB° Speed 01 kn.
Dewpoint: -05° c.
Visibility: 10 km or more.
Clouds: Few 3000 ft.

RJCK 221100Z VRB01KT 9999 FEW030 M01/M05 Q1012


Wind From VRB°
Speed 01 kn.

 
 
jpsmedia.com for Web Design worldairports.se 2019   terms of use